Ana Sayfa
METAR-TAF:

METAR-TAF

Havaalanları :

Dubai Uluslararası Havalimanı

Dubai, Birleşik Arap Emirlikleri

Enlem: 25-15-10N, Boylam: 055-21-52E, yükseklik: 8 m

Güncel hava durumu gözlemi

Rapor saat 13:00 UTC de 42 dakika önce yapıldı.
Rüzgar kuzey/kuzeydoğudan 13 kt
Sıcaklık 23°C
Nem 44%
Basınç 1018 hPa
Görüş mesafesi: 3500 m
yaygın toz

METAR: OMDB 231300Z 03013KT 3500 DU NSC 23/10 Q1018 NOSIG

Saat: 17:42 (13:42 UTC)

Tahmin

Rapor saat 11:00 UTC de 2 saat ve 42 dakika önce yapıldı.
Ayın 23'si saat 12 UTC'den ayın 24'si saat 18 UTC'ye kadar geçerli Tahmin
Rüzgar kuzeydan 12 kt
Görüş mesafesi: 4000 m
yaygın toz
Dönüşüyor
ayın 23'si saat 13 UTC'den ayın 23'si saat 15 UTC'ye kadar
Rüzgar doğudan 8 kt
Görüş mesafesi: 7000 m
Dönüşüyor
ayın 24'si saat 07 UTC'den ayın 24'si saat 09 UTC'ye kadar
Rüzgar kuzey/kuzeybatıdan 10 kt

TAF: OMDB 231100Z 2312/2418 36012KT 4000 DU NSC BECMG 2313/2315 09008KT 7000 NSW BECMG 2407/2409 34010KT

4.000'den fazla havaalanı için hava durumu gözlemleri ve tahminleri (METAR ve TAF raporları).

Kullanılabilir istasyonlar harita üzerinde sarı ve kırmızı noktalarla gösterilir.

İstasyonun adını görmek için fareyi noktanın üzerinde gezdirin.

Sonrasında hava gözlem ve tahminlerini görmek için tıklayın.

Haritayı değiştirmek için: yaklaştırmak için siyah artı işaretli yeşil düğmeye ve uzaklaştırmak için de eksi işaretli düğmeye hızla tıklayın; bitişik haritalar için yeşil okları kullanın.


METAR-TAF: